New Whiteland, Indiana
Current Conditions -  °F | °C
As of 6:54 AM on Sunday 25 Jan 2015 (Local Time) from KIND Reporting Station
Overcast Overcast  
Wind Chill: 26°   Ceiling: 9500
Heat Index: 32°   Visibility: 10mi
Dew Point: 30°   Wind: 6mph
Humidity: 92%   Direction: 140°SE
Pressure: 29.65"   Gusts: NA
Location:  39.551°N, 86.0995°W
Report Text: KIND 251154Z 14005KT 10SM BKN095 OVC120 00/M01 A2965 RMK AO2 SLP048 T00001011 10011 21006 56010
Loading
Personal Weather Stations






























Interactive Weather Map New forecast layout! Learn more

10-Day Weather Forecast

Advertisements
Track Severe Weather on mobile